sensor_id;sensor_type;location;lat;lon;timestamp;temperature;humidity
74416;SHT31;62850;42.428;25.618;2023-10-19T00:00:40;10.69;77.61
74416;SHT31;62850;42.428;25.618;2023-10-19T00:03:06;10.69;77.96
74416;SHT31;62850;42.428;25.618;2023-10-19T00:05:35;10.75;77.29
74416;SHT31;62850;42.428;25.618;2023-10-19T00:08:02;10.77;77.26
74416;SHT31;62850;42.428;25.618;2023-10-19T00:10:40;10.72;77.61
74416;SHT31;62850;42.428;25.618;2023-10-19T00:13:09;10.69;77.76
74416;SHT31;62850;42.428;25.618;2023-10-19T00:15:40;10.72;77.65
74416;SHT31;62850;42.428;25.618;2023-10-19T00:18:07;10.71;77.66
74416;SHT31;62850;42.428;25.618;2023-10-19T00:20:54;10.65;78.13
74416;SHT31;62850;42.428;25.618;2023-10-19T00:23:38;10.71;77.67
74416;SHT31;62850;42.428;25.618;2023-10-19T00:26:05;10.81;77.28
74416;SHT31;62850;42.428;25.618;2023-10-19T00:28:34;10.78;77.31
74416;SHT31;62850;42.428;25.618;2023-10-19T00:31:04;10.82;77.18
74416;SHT31;62850;42.428;25.618;2023-10-19T00:33:36;10.84;77.00
74416;SHT31;62850;42.428;25.618;2023-10-19T00:36:09;10.74;77.61
74416;SHT31;62850;42.428;25.618;2023-10-19T00:38:39;10.67;77.63
74416;SHT31;62850;42.428;25.618;2023-10-19T00:41:09;10.74;77.21
74416;SHT31;62850;42.428;25.618;2023-10-19T00:43:41;10.77;77.09
74416;SHT31;62850;42.428;25.618;2023-10-19T00:46:14;10.75;77.15
74416;SHT31;62850;42.428;25.618;2023-10-19T00:48:53;10.68;77.30
74416;SHT31;62850;42.428;25.618;2023-10-19T00:51:25;10.64;77.41
74416;SHT31;62850;42.428;25.618;2023-10-19T00:54:09;10.53;77.89
74416;SHT31;62850;42.428;25.618;2023-10-19T00:56:43;10.46;77.85
74416;SHT31;62850;42.428;25.618;2023-10-19T00:59:21;10.38;78.09
74416;SHT31;62850;42.428;25.618;2023-10-19T01:01:53;10.41;78.30
74416;SHT31;62850;42.428;25.618;2023-10-19T01:04:22;10.40;78.05
74416;SHT31;62850;42.428;25.618;2023-10-19T01:06:57;10.38;77.94
74416;SHT31;62850;42.428;25.618;2023-10-19T01:09:46;10.37;77.76
74416;SHT31;62850;42.428;25.618;2023-10-19T01:12:12;10.26;78.62
74416;SHT31;62850;42.428;25.618;2023-10-19T01:15:09;10.26;78.78
74416;SHT31;62850;42.428;25.618;2023-10-19T01:17:54;10.32;77.98
74416;SHT31;62850;42.428;25.618;2023-10-19T01:25:48;10.30;77.98
74416;SHT31;62850;42.428;25.618;2023-10-19T01:28:33;10.21;78.19
74416;SHT31;62850;42.428;25.618;2023-10-19T01:31:04;10.16;78.82
74416;SHT31;62850;42.428;25.618;2023-10-19T01:33:33;10.16;78.54
74416;SHT31;62850;42.428;25.618;2023-10-19T01:36:01;10.19;78.26
74416;SHT31;62850;42.428;25.618;2023-10-19T01:38:36;10.20;78.19
74416;SHT31;62850;42.428;25.618;2023-10-19T01:41:03;10.06;78.68
74416;SHT31;62850;42.428;25.618;2023-10-19T01:43:48;10.00;78.78
74416;SHT31;62850;42.428;25.618;2023-10-19T01:46:17;10.05;78.69
74416;SHT31;62850;42.428;25.618;2023-10-19T01:48:52;9.96;79.58
74416;SHT31;62850;42.428;25.618;2023-10-19T01:51:26;9.90;79.19
74416;SHT31;62850;42.428;25.618;2023-10-19T01:53:56;10.00;79.19
74416;SHT31;62850;42.428;25.618;2023-10-19T01:56:23;10.06;78.85
74416;SHT31;62850;42.428;25.618;2023-10-19T01:58:49;9.96;79.00
74416;SHT31;62850;42.428;25.618;2023-10-19T02:01:17;9.88;79.72
74416;SHT31;62850;42.428;25.618;2023-10-19T02:03:58;9.90;79.37
74416;SHT31;62850;42.428;25.618;2023-10-19T02:06:28;9.96;79.09
74416;SHT31;62850;42.428;25.618;2023-10-19T02:09:04;9.99;78.85
74416;SHT31;62850;42.428;25.618;2023-10-19T02:11:47;10.02;78.81
74416;SHT31;62850;42.428;25.618;2023-10-19T02:14:14;9.95;79.49
74416;SHT31;62850;42.428;25.618;2023-10-19T02:16:43;10.03;78.99
74416;SHT31;62850;42.428;25.618;2023-10-19T02:19:10;10.09;78.69
74416;SHT31;62850;42.428;25.618;2023-10-19T02:21:35;10.08;78.68
74416;SHT31;62850;42.428;25.618;2023-10-19T02:24:09;10.05;79.09
74416;SHT31;62850;42.428;25.618;2023-10-19T02:26:40;9.92;79.01
74416;SHT31;62850;42.428;25.618;2023-10-19T02:29:06;9.98;79.03
74416;SHT31;62850;42.428;25.618;2023-10-19T02:31:36;9.90;79.44
74416;SHT31;62850;42.428;25.618;2023-10-19T02:34:06;10.03;79.28
74416;SHT31;62850;42.428;25.618;2023-10-19T02:36:36;9.96;79.25
74416;SHT31;62850;42.428;25.618;2023-10-19T02:39:09;9.98;78.66
74416;SHT31;62850;42.428;25.618;2023-10-19T02:41:46;9.90;78.96
74416;SHT31;62850;42.428;25.618;2023-10-19T02:44:17;9.89;78.87
74416;SHT31;62850;42.428;25.618;2023-10-19T02:46:50;9.85;79.09
74416;SHT31;62850;42.428;25.618;2023-10-19T02:49:19;9.86;79.10
74416;SHT31;62850;42.428;25.618;2023-10-19T02:51:49;9.90;79.05
74416;SHT31;62850;42.428;25.618;2023-10-19T02:54:17;9.86;79.36
74416;SHT31;62850;42.428;25.618;2023-10-19T02:56:51;9.81;80.04
74416;SHT31;62850;42.428;25.618;2023-10-19T02:59:23;9.88;79.36
74416;SHT31;62850;42.428;25.618;2023-10-19T03:01:54;9.92;79.53
74416;SHT31;62850;42.428;25.618;2023-10-19T03:04:27;9.90;79.66
74416;SHT31;62850;42.428;25.618;2023-10-19T03:06:54;9.93;79.20
74416;SHT31;62850;42.428;25.618;2023-10-19T03:09:21;9.88;79.35
74416;SHT31;62850;42.428;25.618;2023-10-19T03:11:53;9.81;79.37
74416;SHT31;62850;42.428;25.618;2023-10-19T03:14:28;9.86;79.37
74416;SHT31;62850;42.428;25.618;2023-10-19T03:16:53;9.77;79.35
74416;SHT31;62850;42.428;25.618;2023-10-19T03:19:22;9.79;79.54
74416;SHT31;62850;42.428;25.618;2023-10-19T03:21:50;9.77;79.53
74416;SHT31;62850;42.428;25.618;2023-10-19T03:24:16;9.71;79.63
74416;SHT31;62850;42.428;25.618;2023-10-19T03:26:49;9.63;79.98
74416;SHT31;62850;42.428;25.618;2023-10-19T03:29:16;9.62;79.93
74416;SHT31;62850;42.428;25.618;2023-10-19T03:31:47;9.52;80.12
74416;SHT31;62850;42.428;25.618;2023-10-19T03:34:13;9.57;80.35
74416;SHT31;62850;42.428;25.618;2023-10-19T03:36:39;9.61;80.17
74416;SHT31;62850;42.428;25.618;2023-10-19T03:39:05;9.57;80.12
74416;SHT31;62850;42.428;25.618;2023-10-19T03:41:41;9.59;80.10
74416;SHT31;62850;42.428;25.618;2023-10-19T03:44:13;9.59;80.00
74416;SHT31;62850;42.428;25.618;2023-10-19T03:46:50;9.58;80.17
74416;SHT31;62850;42.428;25.618;2023-10-19T03:49:21;9.59;80.18
74416;SHT31;62850;42.428;25.618;2023-10-19T03:51:47;9.58;80.28
74416;SHT31;62850;42.428;25.618;2023-10-19T03:54:45;9.54;80.16
74416;SHT31;62850;42.428;25.618;2023-10-19T03:57:14;9.57;80.32
74416;SHT31;62850;42.428;25.618;2023-10-19T03:59:55;9.57;79.92
74416;SHT31;62850;42.428;25.618;2023-10-19T04:02:27;9.57;80.31
74416;SHT31;62850;42.428;25.618;2023-10-19T04:05:01;9.54;80.14
74416;SHT31;62850;42.428;25.618;2023-10-19T04:07:28;9.51;80.30
74416;SHT31;62850;42.428;25.618;2023-10-19T04:09:56;9.51;80.33
74416;SHT31;62850;42.428;25.618;2023-10-19T04:12:43;9.49;80.25
74416;SHT31;62850;42.428;25.618;2023-10-19T04:15:09;9.44;80.50
74416;SHT31;62850;42.428;25.618;2023-10-19T04:17:45;9.47;80.75
74416;SHT31;62850;42.428;25.618;2023-10-19T04:20:12;9.52;80.32
74416;SHT31;62850;42.428;25.618;2023-10-19T04:22:48;9.55;80.44
74416;SHT31;62850;42.428;25.618;2023-10-19T04:25:16;9.55;80.25
74416;SHT31;62850;42.428;25.618;2023-10-19T04:27:42;9.57;80.37
74416;SHT31;62850;42.428;25.618;2023-10-19T04:30:12;9.57;80.45
74416;SHT31;62850;42.428;25.618;2023-10-19T04:32:45;9.58;80.23
74416;SHT31;62850;42.428;25.618;2023-10-19T04:35:14;9.57;80.28
74416;SHT31;62850;42.428;25.618;2023-10-19T04:37:47;9.57;80.31
74416;SHT31;62850;42.428;25.618;2023-10-19T04:40:13;9.52;80.45
74416;SHT31;62850;42.428;25.618;2023-10-19T04:42:39;9.59;80.41
74416;SHT31;62850;42.428;25.618;2023-10-19T04:45:05;9.57;81.00
74416;SHT31;62850;42.428;25.618;2023-10-19T04:47:31;9.52;80.45
74416;SHT31;62850;42.428;25.618;2023-10-19T04:50:00;9.47;80.57
74416;SHT31;62850;42.428;25.618;2023-10-19T04:52:26;9.45;80.61
74416;SHT31;62850;42.428;25.618;2023-10-19T04:54:51;9.51;80.71
74416;SHT31;62850;42.428;25.618;2023-10-19T04:57:19;9.49;80.68
74416;SHT31;62850;42.428;25.618;2023-10-19T04:59:46;9.58;80.29
74416;SHT31;62850;42.428;25.618;2023-10-19T05:02:12;9.61;80.32
74416;SHT31;62850;42.428;25.618;2023-10-19T05:04:37;9.67;80.55
74416;SHT31;62850;42.428;25.618;2023-10-19T05:07:03;9.69;80.38
74416;SHT31;62850;42.428;25.618;2023-10-19T05:09:29;9.78;80.34
74416;SHT31;62850;42.428;25.618;2023-10-19T05:11:55;9.74;80.38
74416;SHT31;62850;42.428;25.618;2023-10-19T05:14:20;9.79;80.17
74416;SHT31;62850;42.428;25.618;2023-10-19T05:16:46;9.81;80.16
74416;SHT31;62850;42.428;25.618;2023-10-19T05:19:11;9.88;80.14
74416;SHT31;62850;42.428;25.618;2023-10-19T05:21:37;9.92;80.03
74416;SHT31;62850;42.428;25.618;2023-10-19T05:24:02;9.95;79.88
74416;SHT31;62850;42.428;25.618;2023-10-19T05:26:28;9.95;80.00
74416;SHT31;62850;42.428;25.618;2023-10-19T05:28:53;9.96;80.06
74416;SHT31;62850;42.428;25.618;2023-10-19T05:31:20;10.02;80.09
74416;SHT31;62850;42.428;25.618;2023-10-19T05:33:45;10.02;80.18
74416;SHT31;62850;42.428;25.618;2023-10-19T05:36:14;10.14;79.85
74416;SHT31;62850;42.428;25.618;2023-10-19T05:38:40;10.17;79.81
74416;SHT31;62850;42.428;25.618;2023-10-19T05:41:06;10.23;79.81
74416;SHT31;62850;42.428;25.618;2023-10-19T05:43:33;10.21;79.95
74416;SHT31;62850;42.428;25.618;2023-10-19T05:46:00;10.33;79.70
74416;SHT31;62850;42.428;25.618;2023-10-19T05:48:25;10.44;79.57
74416;SHT31;62850;42.428;25.618;2023-10-19T05:50:51;10.54;79.21
74416;SHT31;62850;42.428;25.618;2023-10-19T05:53:16;10.67;78.84
74416;SHT31;62850;42.428;25.618;2023-10-19T05:55:46;10.82;78.60
74416;SHT31;62850;42.428;25.618;2023-10-19T05:58:12;10.94;78.31
74416;SHT31;62850;42.428;25.618;2023-10-19T06:00:38;10.99;78.28
74416;SHT31;62850;42.428;25.618;2023-10-19T06:03:04;11.06;78.16
74416;SHT31;62850;42.428;25.618;2023-10-19T06:05:30;11.18;77.55
74416;SHT31;62850;42.428;25.618;2023-10-19T06:07:56;11.26;76.94
74416;SHT31;62850;42.428;25.618;2023-10-19T06:10:21;11.39;76.46
74416;SHT31;62850;42.428;25.618;2023-10-19T06:12:51;11.43;75.87
74416;SHT31;62850;42.428;25.618;2023-10-19T06:15:18;11.53;75.08
74416;SHT31;62850;42.428;25.618;2023-10-19T06:17:46;11.64;74.50
74416;SHT31;62850;42.428;25.618;2023-10-19T06:20:13;11.67;74.12
74416;SHT31;62850;42.428;25.618;2023-10-19T06:22:58;11.76;73.57
74416;SHT31;62850;42.428;25.618;2023-10-19T06:25:32;11.80;73.38
74416;SHT31;62850;42.428;25.618;2023-10-19T06:27:57;11.84;73.26
74416;SHT31;62850;42.428;25.618;2023-10-19T06:30:25;11.83;72.82
74416;SHT31;62850;42.428;25.618;2023-10-19T06:32:56;11.90;73.11
74416;SHT31;62850;42.428;25.618;2023-10-19T06:35:22;11.97;72.18
74416;SHT31;62850;42.428;25.618;2023-10-19T06:37:49;12.04;71.45
74416;SHT31;62850;42.428;25.618;2023-10-19T06:40:16;12.02;71.38
74416;SHT31;62850;42.428;25.618;2023-10-19T06:42:46;12.08;72.36
74416;SHT31;62850;42.428;25.618;2023-10-19T06:45:13;12.21;71.74
74416;SHT31;62850;42.428;25.618;2023-10-19T06:47:46;12.34;70.64
74416;SHT31;62850;42.428;25.618;2023-10-19T06:50:13;12.41;70.64
74416;SHT31;62850;42.428;25.618;2023-10-19T06:52:42;12.41;69.93
74416;SHT31;62850;42.428;25.618;2023-10-19T06:55:13;12.48;70.11
74416;SHT31;62850;42.428;25.618;2023-10-19T06:57:43;12.52;69.53
74416;SHT31;62850;42.428;25.618;2023-10-19T07:00:19;12.56;69.77
74416;SHT31;62850;42.428;25.618;2023-10-19T07:02:49;12.55;70.35
74416;SHT31;62850;42.428;25.618;2023-10-19T07:05:16;12.63;70.56
74416;SHT31;62850;42.428;25.618;2023-10-19T07:07:50;12.62;69.95
74416;SHT31;62850;42.428;25.618;2023-10-19T07:10:18;12.63;70.11
74416;SHT31;62850;42.428;25.618;2023-10-19T07:12:46;12.66;69.52
74416;SHT31;62850;42.428;25.618;2023-10-19T07:15:13;12.69;69.37
74416;SHT31;62850;42.428;25.618;2023-10-19T07:17:45;12.73;69.96
74416;SHT31;62850;42.428;25.618;2023-10-19T07:20:13;12.77;69.85
74416;SHT31;62850;42.428;25.618;2023-10-19T07:22:51;12.79;69.54
74416;SHT31;62850;42.428;25.618;2023-10-19T07:25:17;12.86;69.57
74416;SHT31;62850;42.428;25.618;2023-10-19T07:27:50;12.96;69.40
74416;SHT31;62850;42.428;25.618;2023-10-19T07:30:17;12.99;69.55
74416;SHT31;62850;42.428;25.618;2023-10-19T07:32:50;13.00;68.83
74416;SHT31;62850;42.428;25.618;2023-10-19T07:35:25;13.06;69.38
74416;SHT31;62850;42.428;25.618;2023-10-19T07:37:52;13.14;68.94
74416;SHT31;62850;42.428;25.618;2023-10-19T07:40:18;13.13;68.67
74416;SHT31;62850;42.428;25.618;2023-10-19T07:42:45;13.15;68.86
74416;SHT31;62850;42.428;25.618;2023-10-19T07:45:12;13.28;68.20
74416;SHT31;62850;42.428;25.618;2023-10-19T07:47:41;13.33;68.05
74416;SHT31;62850;42.428;25.618;2023-10-19T07:50:11;13.27;68.13
74416;SHT31;62850;42.428;25.618;2023-10-19T07:52:46;13.35;68.16
74416;SHT31;62850;42.428;25.618;2023-10-19T07:55:14;13.41;67.89
74416;SHT31;62850;42.428;25.618;2023-10-19T07:57:41;13.47;67.91
74416;SHT31;62850;42.428;25.618;2023-10-19T08:00:07;13.57;68.15
74416;SHT31;62850;42.428;25.618;2023-10-19T08:02:36;13.61;68.37
74416;SHT31;62850;42.428;25.618;2023-10-19T08:05:14;13.73;68.05
74416;SHT31;62850;42.428;25.618;2023-10-19T08:07:41;13.82;67.83
74416;SHT31;62850;42.428;25.618;2023-10-19T08:10:13;13.83;67.62
74416;SHT31;62850;42.428;25.618;2023-10-19T08:12:39;13.87;67.83
74416;SHT31;62850;42.428;25.618;2023-10-19T08:15:09;13.96;67.70
74416;SHT31;62850;42.428;25.618;2023-10-19T08:17:39;14.02;67.29
74416;SHT31;62850;42.428;25.618;2023-10-19T08:20:06;14.05;67.55
74416;SHT31;62850;42.428;25.618;2023-10-19T08:22:36;14.05;67.76
74416;SHT31;62850;42.428;25.618;2023-10-19T08:25:04;14.05;67.70
74416;SHT31;62850;42.428;25.618;2023-10-19T08:27:38;14.09;68.13
74416;SHT31;62850;42.428;25.618;2023-10-19T08:30:06;14.12;68.21
74416;SHT31;62850;42.428;25.618;2023-10-19T08:32:34;14.22;67.97
74416;SHT31;62850;42.428;25.618;2023-10-19T08:35:01;14.30;67.91
74416;SHT31;62850;42.428;25.618;2023-10-19T08:37:27;14.37;67.39
74416;SHT31;62850;42.428;25.618;2023-10-19T08:39:53;14.48;67.38
74416;SHT31;62850;42.428;25.618;2023-10-19T08:42:19;14.47;67.37
74416;SHT31;62850;42.428;25.618;2023-10-19T08:44:45;14.43;67.74
74416;SHT31;62850;42.428;25.618;2023-10-19T08:47:11;14.54;67.56
74416;SHT31;62850;42.428;25.618;2023-10-19T08:49:37;14.63;67.23
74416;SHT31;62850;42.428;25.618;2023-10-19T08:52:03;14.61;67.19
74416;SHT31;62850;42.428;25.618;2023-10-19T08:54:30;14.56;67.64
74416;SHT31;62850;42.428;25.618;2023-10-19T08:56:57;14.59;67.73
74416;SHT31;62850;42.428;25.618;2023-10-19T08:59:24;14.61;67.53
74416;SHT31;62850;42.428;25.618;2023-10-19T09:01:50;14.70;67.50
74416;SHT31;62850;42.428;25.618;2023-10-19T09:04:16;14.77;67.79
74416;SHT31;62850;42.428;25.618;2023-10-19T09:06:42;14.81;67.58
74416;SHT31;62850;42.428;25.618;2023-10-19T09:09:12;14.87;67.21
74416;SHT31;62850;42.428;25.618;2023-10-19T09:11:50;14.95;67.34
74416;SHT31;62850;42.428;25.618;2023-10-19T09:14:17;14.93;66.79
74416;SHT31;62850;42.428;25.618;2023-10-19T09:16:57;14.88;66.90
74416;SHT31;62850;42.428;25.618;2023-10-19T09:19:41;14.89;66.99
74416;SHT31;62850;42.428;25.618;2023-10-19T09:22:09;14.74;67.34
74416;SHT31;62850;42.428;25.618;2023-10-19T09:24:47;14.64;67.63
74416;SHT31;62850;42.428;25.618;2023-10-19T09:27:16;14.77;67.23
74416;SHT31;62850;42.428;25.618;2023-10-19T09:29:43;14.87;67.28
74416;SHT31;62850;42.428;25.618;2023-10-19T09:32:09;14.93;66.52
74416;SHT31;62850;42.428;25.618;2023-10-19T09:34:36;15.01;66.09
74416;SHT31;62850;42.428;25.618;2023-10-19T09:37:03;15.02;66.25
74416;SHT31;62850;42.428;25.618;2023-10-19T09:39:32;15.08;66.20
74416;SHT31;62850;42.428;25.618;2023-10-19T09:42:06;15.16;66.06
74416;SHT31;62850;42.428;25.618;2023-10-19T09:44:47;15.23;65.94
74416;SHT31;62850;42.428;25.618;2023-10-19T09:47:28;15.25;65.68
74416;SHT31;62850;42.428;25.618;2023-10-19T09:49:56;15.33;65.54
74416;SHT31;62850;42.428;25.618;2023-10-19T09:52:23;15.44;65.57
74416;SHT31;62850;42.428;25.618;2023-10-19T09:57:59;15.51;65.64
74416;SHT31;62850;42.428;25.618;2023-10-19T10:00:28;15.57;64.55
74416;SHT31;62850;42.428;25.618;2023-10-19T10:02:57;15.54;64.17
74416;SHT31;62850;42.428;25.618;2023-10-19T10:10:45;15.66;64.35
74416;SHT31;62850;42.428;25.618;2023-10-19T10:15:52;15.93;63.54
74416;SHT31;62850;42.428;25.618;2023-10-19T10:18:18;16.02;63.45
74416;SHT31;62850;42.428;25.618;2023-10-19T10:20:44;16.07;63.23
74416;SHT31;62850;42.428;25.618;2023-10-19T10:23:19;16.22;63.44
74416;SHT31;62850;42.428;25.618;2023-10-19T10:25:52;16.32;62.66
74416;SHT31;62850;42.428;25.618;2023-10-19T10:28:19;16.42;62.27
74416;SHT31;62850;42.428;25.618;2023-10-19T10:33:52;16.56;61.63
74416;SHT31;62850;42.428;25.618;2023-10-19T10:36:20;16.55;61.50
74416;SHT31;62850;42.428;25.618;2023-10-19T10:38:48;16.60;61.42
74416;SHT31;62850;42.428;25.618;2023-10-19T10:41:20;16.73;61.43
74416;SHT31;62850;42.428;25.618;2023-10-19T10:43:50;16.83;60.94
74416;SHT31;62850;42.428;25.618;2023-10-19T10:46:20;16.96;60.69
74416;SHT31;62850;42.428;25.618;2023-10-19T10:48:49;17.07;60.32
74416;SHT31;62850;42.428;25.618;2023-10-19T10:51:23;17.26;59.86
74416;SHT31;62850;42.428;25.618;2023-10-19T10:53:53;17.37;59.32
74416;SHT31;62850;42.428;25.618;2023-10-19T10:56:21;17.54;59.14
74416;SHT31;62850;42.428;25.618;2023-10-19T10:58:47;17.68;59.21
74416;SHT31;62850;42.428;25.618;2023-10-19T11:01:13;17.69;58.85
74416;SHT31;62850;42.428;25.618;2023-10-19T11:03:42;17.85;57.36
74416;SHT31;62850;42.428;25.618;2023-10-19T11:06:11;17.86;57.65
74416;SHT31;62850;42.428;25.618;2023-10-19T11:08:37;17.99;57.12
74416;SHT31;62850;42.428;25.618;2023-10-19T11:11:08;18.03;56.71
74416;SHT31;62850;42.428;25.618;2023-10-19T11:13:38;18.07;56.81
74416;SHT31;62850;42.428;25.618;2023-10-19T11:16:06;18.10;56.62
74416;SHT31;62850;42.428;25.618;2023-10-19T11:18:39;18.06;55.85
74416;SHT31;62850;42.428;25.618;2023-10-19T11:21:08;18.10;56.19
74416;SHT31;62850;42.428;25.618;2023-10-19T11:23:57;18.06;55.96
74416;SHT31;62850;42.428;25.618;2023-10-19T11:26:24;18.05;56.23
74416;SHT31;62850;42.428;25.618;2023-10-19T11:29:03;18.05;56.19
74416;SHT31;62850;42.428;25.618;2023-10-19T11:31:35;17.97;56.38
74416;SHT31;62850;42.428;25.618;2023-10-19T11:34:03;17.93;56.04
74416;SHT31;62850;42.428;25.618;2023-10-19T11:36:29;17.92;56.31
74416;SHT31;62850;42.428;25.618;2023-10-19T11:38:55;17.83;56.73
74416;SHT31;62850;42.428;25.618;2023-10-19T11:41:21;17.85;56.65
74416;SHT31;62850;42.428;25.618;2023-10-19T11:43:48;17.86;55.81
74416;SHT31;62850;42.428;25.618;2023-10-19T11:46:14;17.88;56.21
74416;SHT31;62850;42.428;25.618;2023-10-19T11:48:41;17.76;56.89
74416;SHT31;62850;42.428;25.618;2023-10-19T11:51:08;17.74;56.64
74416;SHT31;62850;42.428;25.618;2023-10-19T11:53:37;17.81;56.39
74416;SHT31;62850;42.428;25.618;2023-10-19T11:56:04;17.79;56.32
74416;SHT31;62850;42.428;25.618;2023-10-19T11:58:31;17.83;55.90
74416;SHT31;62850;42.428;25.618;2023-10-19T12:01:04;17.88;56.53
74416;SHT31;62850;42.428;25.618;2023-10-19T12:03:34;17.83;55.58
74416;SHT31;62850;42.428;25.618;2023-10-19T12:06:03;17.89;55.00
74416;SHT31;62850;42.428;25.618;2023-10-19T12:08:34;17.93;55.23
74416;SHT31;62850;42.428;25.618;2023-10-19T12:11:02;17.90;55.10
74416;SHT31;62850;42.428;25.618;2023-10-19T12:13:29;17.85;55.13
74416;SHT31;62850;42.428;25.618;2023-10-19T12:15:56;17.83;55.54
74416;SHT31;62850;42.428;25.618;2023-10-19T12:18:24;17.86;54.75
74416;SHT31;62850;42.428;25.618;2023-10-19T12:20:51;17.95;55.10
74416;SHT31;62850;42.428;25.618;2023-10-19T12:23:22;18.07;54.79
74416;SHT31;62850;42.428;25.618;2023-10-19T12:25:49;18.26;54.17
74416;SHT31;62850;42.428;25.618;2023-10-19T12:28:14;18.47;53.70
74416;SHT31;62850;42.428;25.618;2023-10-19T12:30:43;18.71;53.18
74416;SHT31;62850;42.428;25.618;2023-10-19T12:33:09;18.92;52.84
74416;SHT31;62850;42.428;25.618;2023-10-19T12:35:39;18.99;52.37
74416;SHT31;62850;42.428;25.618;2023-10-19T12:38:23;18.98;53.07
74416;SHT31;62850;42.428;25.618;2023-10-19T12:40:50;19.01;52.46
74416;SHT31;62850;42.428;25.618;2023-10-19T12:43:17;18.92;52.41
74416;SHT31;62850;42.428;25.618;2023-10-19T12:45:47;18.81;52.58
74416;SHT31;62850;42.428;25.618;2023-10-19T12:48:19;18.78;52.09
74416;SHT31;62850;42.428;25.618;2023-10-19T12:50:46;18.72;52.46
74416;SHT31;62850;42.428;25.618;2023-10-19T12:53:12;18.74;52.83
74416;SHT31;62850;42.428;25.618;2023-10-19T12:55:39;18.71;52.56
74416;SHT31;62850;42.428;25.618;2023-10-19T12:58:05;18.53;52.47
74416;SHT31;62850;42.428;25.618;2023-10-19T13:00:37;18.43;53.19
74416;SHT31;62850;42.428;25.618;2023-10-19T13:03:07;18.41;53.15
74416;SHT31;62850;42.428;25.618;2023-10-19T13:05:36;18.34;53.02
74416;SHT31;62850;42.428;25.618;2023-10-19T13:08:07;18.32;53.77
74416;SHT31;62850;42.428;25.618;2023-10-19T13:10:34;18.25;53.88
74416;SHT31;62850;42.428;25.618;2023-10-19T13:13:04;18.23;53.69
74416;SHT31;62850;42.428;25.618;2023-10-19T13:15:34;18.25;53.81
74416;SHT31;62850;42.428;25.618;2023-10-19T13:18:04;18.18;53.91
74416;SHT31;62850;42.428;25.618;2023-10-19T13:20:31;18.16;53.84
74416;SHT31;62850;42.428;25.618;2023-10-19T13:23:10;18.07;54.21
74416;SHT31;62850;42.428;25.618;2023-10-19T13:25:41;18.06;53.98
74416;SHT31;62850;42.428;25.618;2023-10-19T13:28:12;17.99;54.41
74416;SHT31;62850;42.428;25.618;2023-10-19T13:30:42;18.05;54.53
74416;SHT31;62850;42.428;25.618;2023-10-19T13:33:10;18.12;54.33
74416;SHT31;62850;42.428;25.618;2023-10-19T13:35:43;18.13;54.20
74416;SHT31;62850;42.428;25.618;2023-10-19T13:38:09;18.13;54.31
74416;SHT31;62850;42.428;25.618;2023-10-19T13:40:38;18.20;54.28
74416;SHT31;62850;42.428;25.618;2023-10-19T13:43:05;18.20;54.37
74416;SHT31;62850;42.428;25.618;2023-10-19T13:45:35;18.29;53.82
74416;SHT31;62850;42.428;25.618;2023-10-19T13:48:07;18.29;53.96
74416;SHT31;62850;42.428;25.618;2023-10-19T13:50:35;18.32;54.01
74416;SHT31;62850;42.428;25.618;2023-10-19T13:53:01;18.26;53.75
74416;SHT31;62850;42.428;25.618;2023-10-19T13:55:30;18.20;53.06
74416;SHT31;62850;42.428;25.618;2023-10-19T13:57:56;18.22;53.35
74416;SHT31;62850;42.428;25.618;2023-10-19T14:00:22;18.25;53.80
74416;SHT31;62850;42.428;25.618;2023-10-19T14:02:52;18.22;53.61
74416;SHT31;62850;42.428;25.618;2023-10-19T14:05:19;18.25;53.46
74416;SHT31;62850;42.428;25.618;2023-10-19T14:07:46;18.26;53.51
74416;SHT31;62850;42.428;25.618;2023-10-19T14:10:12;18.22;53.33
74416;SHT31;62850;42.428;25.618;2023-10-19T14:12:42;18.20;52.90
74416;SHT31;62850;42.428;25.618;2023-10-19T14:15:13;18.17;52.29
74416;SHT31;62850;42.428;25.618;2023-10-19T14:17:40;18.17;52.74
74416;SHT31;62850;42.428;25.618;2023-10-19T14:20:06;18.16;52.67
74416;SHT31;62850;42.428;25.618;2023-10-19T14:22:32;18.18;52.75
74416;SHT31;62850;42.428;25.618;2023-10-19T14:25:00;18.20;52.39
74416;SHT31;62850;42.428;25.618;2023-10-19T14:27:26;18.22;52.60
74416;SHT31;62850;42.428;25.618;2023-10-19T14:29:52;18.20;52.63
74416;SHT31;62850;42.428;25.618;2023-10-19T14:32:17;18.20;52.68
74416;SHT31;62850;42.428;25.618;2023-10-19T14:34:43;18.17;52.61
74416;SHT31;62850;42.428;25.618;2023-10-19T14:37:08;18.14;52.44
74416;SHT31;62850;42.428;25.618;2023-10-19T14:39:34;18.14;52.42
74416;SHT31;62850;42.428;25.618;2023-10-19T14:41:59;18.12;52.39
74416;SHT31;62850;42.428;25.618;2023-10-19T14:44:25;18.13;52.09
74416;SHT31;62850;42.428;25.618;2023-10-19T14:46:52;18.12;52.39
74416;SHT31;62850;42.428;25.618;2023-10-19T14:49:18;18.10;52.30
74416;SHT31;62850;42.428;25.618;2023-10-19T14:51:44;18.05;52.33
74416;SHT31;62850;42.428;25.618;2023-10-19T14:54:09;18.02;52.09
74416;SHT31;62850;42.428;25.618;2023-10-19T14:56:37;17.99;52.02
74416;SHT31;62850;42.428;25.618;2023-10-19T14:59:02;17.95;51.67
74416;SHT31;62850;42.428;25.618;2023-10-19T15:01:30;17.93;51.99
74416;SHT31;62850;42.428;25.618;2023-10-19T15:03:56;17.93;52.50
74416;SHT31;62850;42.428;25.618;2023-10-19T15:06:21;17.89;53.06
74416;SHT31;62850;42.428;25.618;2023-10-19T15:08:47;17.88;51.87
74416;SHT31;62850;42.428;25.618;2023-10-19T15:11:17;17.85;52.40
74416;SHT31;62850;42.428;25.618;2023-10-19T15:13:43;17.82;52.52
74416;SHT31;62850;42.428;25.618;2023-10-19T15:16:09;17.78;52.15
74416;SHT31;62850;42.428;25.618;2023-10-19T15:18:35;17.76;52.17
74416;SHT31;62850;42.428;25.618;2023-10-19T15:21:08;17.69;52.48
74416;SHT31;62850;42.428;25.618;2023-10-19T15:23:36;17.65;52.41
74416;SHT31;62850;42.428;25.618;2023-10-19T15:26:02;17.61;52.33
74416;SHT31;62850;42.428;25.618;2023-10-19T15:28:29;17.51;53.19
74416;SHT31;62850;42.428;25.618;2023-10-19T15:31:00;17.34;53.91
74416;SHT31;62850;42.428;25.618;2023-10-19T15:33:26;17.14;54.68
74416;SHT31;62850;42.428;25.618;2023-10-19T15:35:52;17.07;54.98
74416;SHT31;62850;42.428;25.618;2023-10-19T15:38:20;16.94;55.32
74416;SHT31;62850;42.428;25.618;2023-10-19T15:40:46;16.77;55.71
74416;SHT31;62850;42.428;25.618;2023-10-19T15:43:11;16.63;56.19
74416;SHT31;62850;42.428;25.618;2023-10-19T15:45:37;16.53;56.46
74416;SHT31;62850;42.428;25.618;2023-10-19T15:48:05;16.45;56.42
74416;SHT31;62850;42.428;25.618;2023-10-19T15:50:31;16.51;56.32
74416;SHT31;62850;42.428;25.618;2023-10-19T15:53:00;16.48;56.54